Terminal Aerodrome Forecast
Issued by NWS

Home | Current Version | Previous Version | Text Only | Print | Product List | Glossary On
Versions: 1 2 3 4 5 6 7 8 9 10 11 12 13 14 15 16 17 18 19 20
000
FTUS45 KGJT 261129
TAFRIL
TAF
KRIL 261129Z 2612/2712 26004KT P6SM -RA FEW030 BKN050 OVC060
      TEMPO 2612/2613 -SHRA
     FM261400 30008KT P6SM SCT060 SCT100
     FM261800 28009KT P6SM FEW100 SCT200
     FM270100 27004KT P6SM SCT200
     FM270500 13004KT P6SM SCT200=

USA.gov is the U.S. government's official web portal to all federal, state and local government web resources and services.